This is the latest recevied weather packets stored in our database for station/object LZ0VRC-10. If no packets are shown the sender has not sent any weather packets the latest 10 day(s).
| Time | Temp. | Humidity | Pressure | Rain* | Wind** | Luminosity | Snow |
|---|---|---|---|---|---|---|---|
| 1777280326 | 16.67° C | 37% | 1024.4 hPa | - | - | - | - |
| 1777280318 | 16.67° C | 37% | 1024.4 hPa | - | - | - | - |
| 1777279419 | 16.11° C | 39% | 1024.5 hPa | - | - | - | - |
| 1777278519 | 15.56° C | 40% | 1024.5 hPa | - | - | - | - |
| 1777277619 | 15° C | 40% | 1024.4 hPa | - | - | - | - |
| 1777276719 | 14.44° C | 42% | 1024.3 hPa | - | - | - | - |
| 1777275823 | 14.44° C | 43% | 1024.2 hPa | - | - | - | - |
| 1777275819 | 14.44° C | 43% | 1024.2 hPa | - | - | - | - |
| 1777274919 | 14.44° C | 43% | 1024.1 hPa | - | - | - | - |
| 1777274019 | 13.89° C | 44% | 1024.2 hPa | - | - | - | - |
| 1777273127 | 13.33° C | 46% | 1024.1 hPa | - | - | - | - |
| 1777273119 | 13.33° C | 46% | 1024.1 hPa | - | - | - | - |
| 1777272219 | 10.56° C | 52% | 1024 hPa | - | - | - | - |
| 1777271327 | 11.11° C | 50% | 1023.9 hPa | - | - | - | - |
| 1777271319 | 11.11° C | 50% | 1023.9 hPa | - | - | - | - |
| 1777270419 | 10.56° C | 51% | 1023.8 hPa | - | - | - | - |
| 1777269519 | 11.11° C | 49% | 1023.7 hPa | - | - | - | - |
| 1777268619 | 11.67° C | 47% | 1023.7 hPa | - | - | - | - |
| 1777267727 | 12.22° C | 42% | 1023.5 hPa | - | - | - | - |
| 1777267719 | 12.22° C | 42% | 1023.5 hPa | - | - | - | - |
| 1777266819 | 11.67° C | 43% | 1023.4 hPa | - | - | - | - |
| 1777265919 | 11.11° C | 45% | 1023.2 hPa | - | - | - | - |
| 1777265019 | 9.44° C | 49% | 1023.1 hPa | - | - | - | - |
| 1777264119 | 7.22° C | 55% | 1023 hPa | - | - | - | - |
| 1777263219 | 7.22° C | 56% | 1023 hPa | - | - | - | - |
* Rain since midnight (hover to see other rain measurements)
** Current wind speed in m/s (hover to see current wind gust speed)